Cfl Performer — PHLY — position and weather

sailwx.info

Track history (hours):
 
Tides and Currents Weather Stations Pressure Air Temp Water Temp Dewpoint Dewpoint Depression Visibility Wind Speed Wind Dir Waves Ship Positions

Cfl Performer

Last reported at 2015-May-06 12:11 UTC. Time now 2015-May-07 03:36 UTC.
Position N 51°03' E 002°21'.

Length 117 m; draft 3.5 m.

Type: Cargo ship. MMSI: 244989000.

Date/timePositionNaut miles runAvg speedWind from/ knotsBaromVisibWave heightAir tempDewpointWater temp
2015-May-06 12:11N 51°03' E 002°21'0 0.0
2015-May-06 11:14N 51°03' E 002°21'0 0.0
2015-May-06 10:29N 51°03' E 002°21'0 0.0
2015-May-06 09:30N 51°03' E 002°21'0 0.0
2015-May-06 07:05N 51°03' E 002°21'0 0.0
2015-May-06 06:08N 51°03' E 002°21'0 0.0
2015-May-05 19:27N 51°03' E 002°21'0 0.0
2015-May-05 15:19N 51°03' E 002°21'0 0.1
2015-May-05 14:28N 51°03' E 002°21'2 1.4
2015-May-05 13:23N 51°04' E 002°22'1112.9
2015-May-05 12:34N 51°03' E 002°05'9 9.0
2015-May-05 11:33N 51°02' E 001°50'1110.7
2015-May-05 10:33N 50°58' E 001°34'8411.5
2015-May-05 03:19N 49°53' E 000°13'811.0
2015-May-05 02:33N 49°46' E 000°05'1212.5
2015-May-05 01:34N 49°35' W 000°04'9 8.8
2015-May-05 00:34N 49°27' E 000°02'1212.3
2015-May-04 23:34N 49°26' E 000°20'9 9.1
2015-May-04 22:34N 49°26' E 000°34'8 7.4
2015-May-04 21:25N 49°31' E 000°45'  
2015-May-01 11:06N 49°24' E 000°52'4 6.8
2015-May-01 10:33N 49°27' E 000°49'6 6.2
2015-May-01 09:33N 49°29' E 000°40'7 7.1
2015-May-01 08:33N 49°29' E 000°29'1110.6
2015-May-01 07:33N 49°26' E 000°14'1010.1
2015-May-01 06:33N 49°28' W 000°02'8 8.4
2015-May-01 05:33N 49°33' W 000°12'1110.5
2015-May-01 04:33N 49°44' W 000°10'50 9.4
2015-Apr-30 23:13N 50°31' E 000°17'710.6
2015-Apr-30 22:32N 50°33' E 000°28'1010.4
2015-Apr-30 21:33N 50°38' E 000°42'1110.5
2015-Apr-30 20:33N 50°44' E 000°55'1010.3
2015-Apr-30 19:33N 50°51' E 001°08'1110.9
2015-Apr-30 18:32N 50°57' E 001°22'1212.3
2015-Apr-30 17:33N 51°06' E 001°35'1111.0
2015-Apr-30 16:33N 51°02' E 001°52'1111.2
2015-Apr-30 15:33N 51°03' E 002°09'7 7.2
2015-Apr-30 14:31N 51°03' E 002°21'3 2.6
2015-Apr-30 13:30N 51°03' E 002°17'0 0.0
2015-Apr-30 12:32N 51°03' E 002°17'0 0.0
2015-Apr-30 11:29N 51°03' E 002°17'0 0.0
2015-Apr-30 07:29N 51°03' E 002°17'0 0.0
2015-Apr-30 06:11N 51°03' E 002°17'0 0.0
2015-Apr-30 05:29N 51°03' E 002°17'0 0.0
2015-Apr-30 04:29N 51°03' E 002°17'0 0.0
2015-Apr-30 03:29N 51°03' E 002°17'0 0.0
2015-Apr-30 02:32N 51°03' E 002°17'0 0.0
2015-Apr-30 01:29N 51°03' E 002°17'0 0.0
2015-Apr-30 00:11N 51°03' E 002°17'0 0.0
2015-Apr-29 23:32N 51°03' E 002°17'0 0.0
2015-Apr-29 22:29N 51°03' E 002°17'0 0.0
2015-Apr-29 21:29N 51°03' E 002°17'0 0.0
2015-Apr-29 20:23N 51°03' E 002°17'0 0.0
2015-Apr-29 19:32N 51°03' E 002°17'0 0.0
2015-Apr-29 18:20N 51°03' E 002°17'0 0.0
2015-Apr-29 16:23N 51°03' E 002°17'0 0.0
2015-Apr-29 15:17N 51°03' E 002°17'0 0.0
2015-Apr-29 14:20N 51°03' E 002°17'0 0.0
2015-Apr-29 13:29N 51°03' E 002°17'0 0.0
2015-Apr-29 11:32N 51°03' E 002°17'0 0.0
2015-Apr-29 10:29N 51°03' E 002°17'0 0.0
2015-Apr-29 08:06N 51°03' E 002°17'2 3.0
2015-Apr-29 07:23N 51°03' E 002°20'1 1.0
2015-Apr-29 06:31N 51°04' E 002°20'8 8.5
2015-Apr-29 05:33N 51°03' E 002°07'1111.0
2015-Apr-29 04:34N 51°02' E 001°50'8 8.0
2015-Apr-29 03:34N 50°60' E 001°37'1110.8
2015-Apr-29 02:32N 50°51' E 001°27'7610.3
2015-Apr-28 19:11N 49°52' E 000°13'812.6
2015-Apr-28 18:33N 49°46' E 000°05'1212.1
2015-Apr-28 17:34N 49°35' W 000°04'9 8.8
2015-Apr-28 16:33N 49°27' E 000°01'1111.0
2015-Apr-28 15:33N 49°26' E 000°18'10 9.8
2015-Apr-28 14:33N 49°28' E 000°33'9 8.8
2015-Apr-28 13:31N 49°31' E 000°46'8 0.2
2015-Apr-27 05:10N 49°25' E 000°52'4 6.2
2015-Apr-27 04:33N 49°28' E 000°49'6 6.0
2015-Apr-27 03:33N 49°27' E 000°40'8 8.4
2015-Apr-27 02:34N 49°28' E 000°27'1211.5
2015-Apr-27 01:33N 49°26' E 000°09'1010.3
2015-Apr-27 00:34N 49°29' W 000°06'7 6.9
2015-Apr-26 23:34N 49°35' W 000°12'9 8.7
2015-Apr-26 22:33N 49°43' W 000°11'51 8.0
2015-Apr-26 16:14N 50°31' E 000°17'7 9.3
2015-Apr-26 15:31N 50°33' E 000°27'9 9.1
2015-Apr-26 14:33N 50°36' E 000°40'9 9.2
2015-Apr-26 13:33N 50°42' E 000°52'9 9.1
2015-Apr-26 12:33N 50°47' E 001°03'  
Track history (hours):
 
Tides and Currents Weather Stations Pressure Air Temp Water Temp Dewpoint Dewpoint Depression Visibility Wind Speed Wind Dir Waves Ship Positions

Cfl Performer

Last reported at 2015-May-06 12:11 UTC. Time now 2015-May-07 03:36 UTC.
Position N 51°03' E 002°21'.

Length 117 m; draft 3.5 m.

Type: Cargo ship. MMSI: 244989000.

Date/timePositionNaut miles runAvg speedWind from/ knotsBaromVisibWave heightAir tempDewpointWater temp
2015-May-06 12:11N 51°03' E 002°21'0 0.0
2015-May-06 11:14N 51°03' E 002°21'0 0.0
2015-May-06 10:29N 51°03' E 002°21'0 0.0
2015-May-06 09:30N 51°03' E 002°21'0 0.0
2015-May-06 07:05N 51°03' E 002°21'0 0.0
2015-May-06 06:08N 51°03' E 002°21'0 0.0
2015-May-05 19:27N 51°03' E 002°21'0 0.0
2015-May-05 15:19N 51°03' E 002°21'0 0.1
2015-May-05 14:28N 51°03' E 002°21'2 1.4
2015-May-05 13:23N 51°04' E 002°22'1112.9
2015-May-05 12:34N 51°03' E 002°05'9 9.0
2015-May-05 11:33N 51°02' E 001°50'1110.7
2015-May-05 10:33N 50°58' E 001°34'8411.5
2015-May-05 03:19N 49°53' E 000°13'811.0
2015-May-05 02:33N 49°46' E 000°05'1212.5
2015-May-05 01:34N 49°35' W 000°04'9 8.8
2015-May-05 00:34N 49°27' E 000°02'1212.3
2015-May-04 23:34N 49°26' E 000°20'9 9.1
2015-May-04 22:34N 49°26' E 000°34'8 7.4
2015-May-04 21:25N 49°31' E 000°45'  
2015-May-01 11:06N 49°24' E 000°52'4 6.8
2015-May-01 10:33N 49°27' E 000°49'6 6.2
2015-May-01 09:33N 49°29' E 000°40'7 7.1
2015-May-01 08:33N 49°29' E 000°29'1110.6
2015-May-01 07:33N 49°26' E 000°14'1010.1
2015-May-01 06:33N 49°28' W 000°02'8 8.4
2015-May-01 05:33N 49°33' W 000°12'1110.5
2015-May-01 04:33N 49°44' W 000°10'50 9.4
2015-Apr-30 23:13N 50°31' E 000°17'710.6
2015-Apr-30 22:32N 50°33' E 000°28'1010.4
2015-Apr-30 21:33N 50°38' E 000°42'1110.5
2015-Apr-30 20:33N 50°44' E 000°55'1010.3
2015-Apr-30 19:33N 50°51' E 001°08'1110.9
2015-Apr-30 18:32N 50°57' E 001°22'1212.3
2015-Apr-30 17:33N 51°06' E 001°35'1111.0
2015-Apr-30 16:33N 51°02' E 001°52'1111.2
2015-Apr-30 15:33N 51°03' E 002°09'7 7.2
2015-Apr-30 14:31N 51°03' E 002°21'3 2.6
2015-Apr-30 13:30N 51°03' E 002°17'0 0.0
2015-Apr-30 12:32N 51°03' E 002°17'0 0.0
2015-Apr-30 11:29N 51°03' E 002°17'0 0.0
2015-Apr-30 07:29N 51°03' E 002°17'0 0.0
2015-Apr-30 06:11N 51°03' E 002°17'0 0.0
2015-Apr-30 05:29N 51°03' E 002°17'0 0.0
2015-Apr-30 04:29N 51°03' E 002°17'0 0.0
2015-Apr-30 03:29N 51°03' E 002°17'0 0.0
2015-Apr-30 02:32N 51°03' E 002°17'0 0.0
2015-Apr-30 01:29N 51°03' E 002°17'0 0.0
2015-Apr-30 00:11N 51°03' E 002°17'0 0.0
2015-Apr-29 23:32N 51°03' E 002°17'0 0.0
2015-Apr-29 22:29N 51°03' E 002°17'0 0.0
2015-Apr-29 21:29N 51°03' E 002°17'0 0.0
2015-Apr-29 20:23N 51°03' E 002°17'0 0.0
2015-Apr-29 19:32N 51°03' E 002°17'0 0.0
2015-Apr-29 18:20N 51°03' E 002°17'0 0.0
2015-Apr-29 16:23N 51°03' E 002°17'0 0.0
2015-Apr-29 15:17N 51°03' E 002°17'0 0.0
2015-Apr-29 14:20N 51°03' E 002°17'0 0.0
2015-Apr-29 13:29N 51°03' E 002°17'0 0.0
2015-Apr-29 11:32N 51°03' E 002°17'0 0.0
2015-Apr-29 10:29N 51°03' E 002°17'0 0.0
2015-Apr-29 08:06N 51°03' E 002°17'2 3.0
2015-Apr-29 07:23N 51°03' E 002°20'1 1.0
2015-Apr-29 06:31N 51°04' E 002°20'8 8.5
2015-Apr-29 05:33N 51°03' E 002°07'1111.0
2015-Apr-29 04:34N 51°02' E 001°50'8 8.0
2015-Apr-29 03:34N 50°60' E 001°37'1110.8
2015-Apr-29 02:32N 50°51' E 001°27'7610.3
2015-Apr-28 19:11N 49°52' E 000°13'812.6
2015-Apr-28 18:33N 49°46' E 000°05'1212.1
2015-Apr-28 17:34N 49°35' W 000°04'9 8.8
2015-Apr-28 16:33N 49°27' E 000°01'1111.0
2015-Apr-28 15:33N 49°26' E 000°18'10 9.8
2015-Apr-28 14:33N 49°28' E 000°33'9 8.8
2015-Apr-28 13:31N 49°31' E 000°46'8 0.2
2015-Apr-27 05:10N 49°25' E 000°52'4 6.2
2015-Apr-27 04:33N 49°28' E 000°49'6 6.0
2015-Apr-27 03:33N 49°27' E 000°40'8 8.4
2015-Apr-27 02:34N 49°28' E 000°27'1211.5
2015-Apr-27 01:33N 49°26' E 000°09'1010.3
2015-Apr-27 00:34N 49°29' W 000°06'7 6.9
2015-Apr-26 23:34N 49°35' W 000°12'9 8.7
2015-Apr-26 22:33N 49°43' W 000°11'51 8.0
2015-Apr-26 16:14N 50°31' E 000°17'7 9.3
2015-Apr-26 15:31N 50°33' E 000°27'9 9.1
2015-Apr-26 14:33N 50°36' E 000°40'9 9.2
2015-Apr-26 13:33N 50°42' E 000°52'9 9.1
2015-Apr-26 12:33N 50°47' E 001°03'  

Dump ship's entire track history